New Seabury, Massachusetts
Current Conditions -  °F | °C
As of 9:35 PM on Friday 21 Nov 2014 (Local Time) from KFMH Reporting Station
Clear Clear  
Wind Chill: -8°   Ceiling: Unl
Heat Index: -2°   Visibility: 10mi
Dew Point: -12°   Wind: 13mph
Humidity: 47%   Direction: 290°WNW
Pressure: 30.4"   Gusts: 18mph
Location:  41.6167°N, 70.4906°W
Report Text: KFMH 220235Z AUTO 29011G16KT 10SM CLR M02/M12 A3040 RMK AO2
Loading
Personal Weather Stations






























Interactive Weather Map New forecast layout! Learn more

10-Day Weather Forecast

Advertisements
Track Severe Weather on mobile